Time;durP1;ratioP1;P1;durP2;ratioP2;P2;SDS_P1;SDS_P2;PMS_P1;PMS_P2;Temp;Humidity;BMP_temperature;BMP_pressure;BME280_temperature;BME280_humidity;BME280_pressure;Samples;Min_cycle;Max_cycle;Signal;HPM_P1;HPM_P2
2022/09/17 00:01:19;;;;;;;9.43;3.97;;;;;;;;;;5012471;28;20121;-75
2022/09/17 00:03:52;;;;;;;6.47;3.50;;;;;;;;;;5012088;28;20038;-75
2022/09/17 00:06:18;;;;;;;5.50;3.28;;;;;;;;;;5011734;28;20084;-75
2022/09/17 00:08:43;;;;;;;5.03;3.28;;;;;;;;;;4994295;28;20069;-76
2022/09/17 00:11:22;;;;;;;9.23;4.57;;;;;;;;;;4994201;28;20030;-77
2022/09/17 00:13:49;;;;;;;6.20;4.00;;;;;;;;;;5010500;28;20034;-75
2022/09/17 00:16:31;;;;;;;5.57;3.33;;;;;;;;;;5010558;28;20030;-75
2022/09/17 00:18:58;;;;;;;4.68;3.55;;;;;;;;;;5012543;28;20033;-74
2022/09/17 00:21:24;;;;;;;6.32;3.50;;;;;;;;;;5011849;28;20060;-74
2022/09/17 00:23:59;;;;;;;6.95;3.63;;;;;;;;;;5012506;28;20136;-75
2022/09/17 00:26:25;;;;;;;6.25;3.25;;;;;;;;;;5011435;28;20036;-74
2022/09/17 00:28:53;;;;;;;5.82;3.53;;;;;;;;;;4995281;28;20085;-74
2022/09/17 00:31:19;;;;;;;4.53;3.10;;;;;;;;;;5012216;28;20030;-76
2022/09/17 00:33:44;;;;;;;6.72;3.30;;;;;;;;;;4990967;28;20121;-76
2022/09/17 00:36:10;;;;;;;7.13;3.50;;;;;;;;;;5007062;28;20129;-75
2022/09/17 00:38:36;;;;;;;3.60;3.05;;;;;;;;;;5006887;28;20018;-76
2022/09/17 00:41:03;;;;;;;5.75;2.92;;;;;;;;;;4991982;28;20018;-76
2022/09/17 00:43:45;;;;;;;7.28;3.08;;;;;;;;;;4992086;28;20032;-75
2022/09/17 00:46:25;;;;;;;6.35;3.90;;;;;;;;;;5007379;28;20038;-76
2022/09/17 00:48:53;;;;;;;5.07;2.83;;;;;;;;;;4991807;28;20033;-75
2022/09/17 00:51:26;;;;;;;4.80;3.15;;;;;;;;;;5007041;28;20057;-75
2022/09/17 00:53:52;;;;;;;4.68;2.80;;;;;;;;;;5007182;28;20034;-74
2022/09/17 00:56:27;;;;;;;7.13;3.45;;;;;;;;;;5006848;28;20085;-75
2022/09/17 00:58:54;;;;;;;5.03;2.90;;;;;;;;;;5006646;28;20030;-74
2022/09/17 01:01:20;;;;;;;6.10;3.20;;;;;;;;;;4991252;28;20694;-75
2022/09/17 01:03:46;;;;;;;3.45;2.80;;;;;;;;;;5006646;28;20033;-76
2022/09/17 01:06:37;;;;;;;4.15;2.80;;;;;;;;;;4992430;28;20034;-75
2022/09/17 01:09:12;;;;;;;4.47;3.30;;;;;;;;;;5007814;28;20077;-74
2022/09/17 01:11:59;;;;;;;9.00;2.85;;;;;;;;;;5006528;28;20038;-75
2022/09/17 01:14:49;;;;;;;3.65;2.72;;;;;;;;;;5006380;28;20129;-75
2022/09/17 01:17:25;;;;;;;3.00;2.70;;;;;;;;;;4990082;28;20038;-76
2022/09/17 01:20:15;;;;;;;5.55;3.22;;;;;;;;;;4991793;28;20093;-75
2022/09/17 01:23:02;;;;;;;3.63;2.97;;;;;;;;;;4992809;28;20057;-75
2022/09/17 01:25:37;;;;;;;4.38;2.70;;;;;;;;;;4992561;28;20450;-75
2022/09/17 01:28:21;;;;;;;4.07;3.15;;;;;;;;;;4992432;28;20038;-75
2022/09/17 01:31:08;;;;;;;4.25;2.42;;;;;;;;;;5007547;28;20070;-75
2022/09/17 01:33:53;;;;;;;3.13;2.50;;;;;;;;;;5005716;28;20050;-76
2022/09/17 01:36:41;;;;;;;3.53;2.97;;;;;;;;;;5006704;28;20037;-75
2022/09/17 01:39:31;;;;;;;4.75;2.53;;;;;;;;;;4994049;28;20502;-74
2022/09/17 01:42:30;;;;;;;5.35;2.72;;;;;;;;;;5010152;28;20117;-74
2022/09/17 01:45:13;;;;;;;4.65;2.33;;;;;;;;;;5010186;28;20394;-75
2022/09/17 01:47:57;;;;;;;5.82;2.92;;;;;;;;;;5010135;28;20161;-75
2022/09/17 01:50:27;;;;;;;6.97;2.85;;;;;;;;;;4996567;28;20064;-75
2022/09/17 01:52:55;;;;;;;5.72;2.65;;;;;;;;;;5012483;28;20068;-75
2022/09/17 01:55:26;;;;;;;6.63;3.08;;;;;;;;;;4998518;28;20097;-75
2022/09/17 01:58:28;;;;;;;6.07;2.72;;;;;;;;;;4998206;28;20030;-76
2022/09/17 02:01:04;;;;;;;4.28;2.53;;;;;;;;;;4999503;28;20100;-75
2022/09/17 02:03:41;;;;;;;3.83;2.42;;;;;;;;;;4993509;28;20042;-75
2022/09/17 02:06:16;;;;;;;5.47;2.60;;;;;;;;;;5009977;28;20041;-75
2022/09/17 02:08:51;;;;;;;4.90;2.28;;;;;;;;;;5009750;28;20026;-75
2022/09/17 02:11:18;;;;;;;3.00;2.30;;;;;;;;;;4994789;28;20538;-75
2022/09/17 02:13:57;;;;;;;3.60;2.42;;;;;;;;;;5009536;28;20077;-73
2022/09/17 02:16:29;;;;;;;4.80;2.38;;;;;;;;;;4993997;28;20026;-74
2022/09/17 02:19:22;;;;;;;5.40;2.20;;;;;;;;;;5009506;28;20121;-74
2022/09/17 02:22:01;;;;;;;;;;;;;;;;;;5010045;28;20057;-74
2022/09/17 02:24:48;;;;;;;3.15;2.25;;;;;;;;;;4994389;28;20325;-75
2022/09/17 02:27:25;;;;;;;2.15;1.95;;;;;;;;;;5009819;28;20034;-75
2022/09/17 02:29:51;;;;;;;3.87;2.17;;;;;;;;;;5009913;28;20027;-74
2022/09/17 02:32:16;;;;;;;5.50;2.28;;;;;;;;;;4993569;28;20034;-74
2022/09/17 02:34:42;;;;;;;6.07;2.53;;;;;;;;;;5009986;28;20046;-75
2022/09/17 02:37:08;;;;;;;5.57;2.40;;;;;;;;;;5014238;28;20057;-75
2022/09/17 02:39:34;;;;;;;4.20;2.28;;;;;;;;;;5012057;28;20036;-75
2022/09/17 02:42:16;;;;;;;3.90;2.30;;;;;;;;;;5011507;28;20030;-75
2022/09/17 02:45:01;;;;;;;2.60;2.15;;;;;;;;;;5011071;28;20060;-75
2022/09/17 02:47:36;;;;;;;5.78;1.90;;;;;;;;;;5011636;28;20179;-75
2022/09/17 02:50:04;;;;;;;3.47;2.00;;;;;;;;;;5011687;28;20022;-73
2022/09/17 02:52:49;;;;;;;4.47;2.58;;;;;;;;;;5011343;28;20030;-76
2022/09/17 02:55:21;;;;;;;3.03;2.40;;;;;;;;;;5011662;28;20056;-75
2022/09/17 02:57:59;;;;;;;4.57;2.60;;;;;;;;;;5012080;28;20077;-75
2022/09/17 03:00:27;;;;;;;4.82;2.30;;;;;;;;;;5012184;28;20101;-74
2022/09/17 03:02:57;;;;;;;4.47;2.17;;;;;;;;;;5010539;28;20025;-75
2022/09/17 03:05:24;;;;;;;5.07;2.17;;;;;;;;;;4994330;28;20026;-75
2022/09/17 03:07:50;;;;;;;4.93;2.08;;;;;;;;;;5011694;28;20096;-76
2022/09/17 03:10:17;;;;;;;4.95;1.83;;;;;;;;;;5010706;28;20033;-76
2022/09/17 03:12:43;;;;;;;4.82;2.25;;;;;;;;;;5012030;28;20101;-75
2022/09/17 03:15:09;;;;;;;2.65;1.80;;;;;;;;;;5012163;28;20117;-75
2022/09/17 03:17:34;;;;;;;2.67;1.83;;;;;;;;;;4994311;28;20033;-75
2022/09/17 03:20:00;;;;;;;3.58;1.70;;;;;;;;;;5010496;28;20060;-75
2022/09/17 03:22:25;;;;;;;3.10;1.75;;;;;;;;;;5011606;28;20105;-77
2022/09/17 03:24:51;;;;;;;4.88;2.05;;;;;;;;;;5020224;28;20646;-76
2022/09/17 03:27:16;;;;;;;3.78;2.05;;;;;;;;;;5030054;28;20473;-75
2022/09/17 03:29:42;;;;;;;4.68;2.00;;;;;;;;;;5030077;28;20489;-76
2022/09/17 03:32:08;;;;;;;4.10;1.90;;;;;;;;;;5031239;28;20470;-75
2022/09/17 03:34:33;;;;;;;5.32;1.85;;;;;;;;;;4988750;28;1200507;-75
2022/09/17 03:36:59;;;;;;;3.67;1.88;;;;;;;;;;5014421;28;20124;-75
2022/09/17 03:39:24;;;;;;;5.85;2.25;;;;;;;;;;5014141;28;20075;-74
2022/09/17 03:41:50;;;;;;;5.90;1.73;;;;;;;;;;5014303;28;20040;-74
2022/09/17 03:44:18;;;;;;;5.63;1.67;;;;;;;;;;5014528;28;20025;-74
2022/09/17 03:46:44;;;;;;;2.13;1.35;;;;;;;;;;5030666;28;20120;-75
2022/09/17 03:49:09;;;;;;;4.22;2.03;;;;;;;;;;5032232;28;20040;-75
2022/09/17 03:51:34;;;;;;;6.88;1.60;;;;;;;;;;5032092;28;20599;-75
2022/09/17 03:54:01;;;;;;;2.13;1.60;;;;;;;;;;5033459;28;20117;-75
2022/09/17 03:56:27;;;;;;;2.47;2.00;;;;;;;;;;5031110;28;20045;-75
2022/09/17 03:58:57;;;;;;;4.00;1.63;;;;;;;;;;5029535;28;20025;-76
2022/09/17 04:01:27;;;;;;;3.05;1.80;;;;;;;;;;5030501;28;20033;-74
2022/09/17 04:03:53;;;;;;;5.90;1.70;;;;;;;;;;5030477;28;20036;-75
2022/09/17 04:06:18;;;;;;;1.88;1.63;;;;;;;;;;5032089;28;20025;-76
2022/09/17 04:08:45;;;;;;;1.70;1.42;;;;;;;;;;5030140;28;20017;-75
2022/09/17 04:11:12;;;;;;;4.80;1.40;;;;;;;;;;5031640;28;20704;-76
2022/09/17 04:13:38;;;;;;;2.42;2.22;;;;;;;;;;5013502;28;20029;-74
2022/09/17 04:16:03;;;;;;;1.77;1.65;;;;;;;;;;5030228;28;20033;-74
2022/09/17 04:18:29;;;;;;;2.60;1.65;;;;;;;;;;5013769;28;20033;-74
2022/09/17 04:20:55;;;;;;;4.78;2.00;;;;;;;;;;5032180;28;20474;-74
2022/09/17 04:23:21;;;;;;;3.13;2.05;;;;;;;;;;5032097;28;20037;-74
2022/09/17 04:25:46;;;;;;;3.40;1.50;;;;;;;;;;5014055;28;20041;-76
2022/09/17 04:28:12;;;;;;;7.07;1.70;;;;;;;;;;5012261;28;20032;-76
2022/09/17 04:30:38;;;;;;;4.32;1.23;;;;;;;;;;5012592;28;20107;-76
2022/09/17 04:33:04;;;;;;;5.75;1.73;;;;;;;;;;5011280;28;20078;-75
2022/09/17 04:35:29;;;;;;;3.78;1.88;;;;;;;;;;5012389;28;20030;-76
2022/09/17 04:37:58;;;;;;;1.30;1.20;;;;;;;;;;5011973;28;20072;-75
2022/09/17 04:40:25;;;;;;;2.50;1.42;;;;;;;;;;5011553;28;20029;-75
2022/09/17 04:42:55;;;;;;;3.25;1.05;;;;;;;;;;4994063;28;20029;-75
2022/09/17 04:45:21;;;;;;;3.05;1.60;;;;;;;;;;4994092;28;20382;-75
2022/09/17 04:47:46;;;;;;;3.83;1.30;;;;;;;;;;5011015;28;20028;-75
2022/09/17 04:50:12;;;;;;;2.05;1.00;;;;;;;;;;5009940;28;20204;-74
2022/09/17 04:52:42;;;;;;;1.40;1.30;;;;;;;;;;5011204;28;20061;-74
2022/09/17 04:55:08;;;;;;;1.92;1.20;;;;;;;;;;5009940;28;20018;-75
2022/09/17 04:57:34;;;;;;;1.73;1.25;;;;;;;;;;5011374;28;20092;-74
2022/09/17 05:00:00;;;;;;;1.98;1.10;;;;;;;;;;5011759;28;20117;-73
2022/09/17 05:02:25;;;;;;;2.83;2.15;;;;;;;;;;5010319;28;20028;-74
2022/09/17 05:04:51;;;;;;;3.30;1.17;;;;;;;;;;5012645;28;20049;-75
2022/09/17 05:07:16;;;;;;;4.10;1.30;;;;;;;;;;4994708;28;20439;-75
2022/09/17 05:09:42;;;;;;;4.78;1.35;;;;;;;;;;5011526;28;20030;-76
2022/09/17 05:12:07;;;;;;;3.38;1.30;;;;;;;;;;5009958;28;20087;-76
2022/09/17 05:14:33;;;;;;;5.38;1.52;;;;;;;;;;5010252;28;20034;-76
2022/09/17 05:16:58;;;;;;;1.95;1.15;;;;;;;;;;5011393;28;20113;-75
2022/09/17 05:19:24;;;;;;;2.03;1.30;;;;;;;;;;5010929;28;20069;-76
2022/09/17 05:21:49;;;;;;;5.38;1.40;;;;;;;;;;5011354;28;20026;-79
2022/09/17 05:24:14;;;;;;;2.65;1.30;;;;;;;;;;5015987;28;20663;-77
2022/09/17 05:26:41;;;;;;;2.47;1.23;;;;;;;;;;5030958;28;20025;-78
2022/09/17 05:29:07;;;;;;;2.28;1.20;;;;;;;;;;5029819;28;20386;-79
2022/09/17 05:31:32;;;;;;;7.63;1.35;;;;;;;;;;5030915;28;20029;-79
2022/09/17 05:33:58;;;;;;;3.63;1.30;;;;;;;;;;5029234;28;20084;-79
2022/09/17 05:36:24;;;;;;;2.92;1.00;;;;;;;;;;5029674;28;20458;-78
2022/09/17 05:38:49;;;;;;;2.53;1.60;;;;;;;;;;5029305;28;20038;-80
2022/09/17 05:41:15;;;;;;;3.35;1.30;;;;;;;;;;5029833;28;20052;-78
2022/09/17 05:43:42;;;;;;;1.30;1.08;;;;;;;;;;5030915;28;20039;-79
2022/09/17 05:46:07;;;;;;;3.80;1.25;;;;;;;;;;5030950;28;20112;-79
2022/09/17 05:48:33;;;;;;;3.00;1.13;;;;;;;;;;5031173;28;20100;-77
2022/09/17 05:50:59;;;;;;;4.38;1.40;;;;;;;;;;5030961;28;20038;-79
2022/09/17 05:53:24;;;;;;;3.97;1.40;;;;;;;;;;5014169;28;20041;-79
2022/09/17 05:55:50;;;;;;;2.92;1.60;;;;;;;;;;5029903;28;20037;-80
2022/09/17 05:58:17;;;;;;;4.35;1.30;;;;;;;;;;5032100;28;20033;-80
2022/09/17 06:00:45;;;;;;;7.10;1.40;;;;;;;;;;5034851;28;20897;-79
2022/09/17 06:03:12;;;;;;;5.82;1.73;;;;;;;;;;5018417;28;20033;-80
2022/09/17 06:05:38;;;;;;;3.28;1.35;;;;;;;;;;5034525;28;20099;-76
2022/09/17 06:08:04;;;;;;;2.47;1.23;;;;;;;;;;5033851;28;20889;-78
2022/09/17 06:10:30;;;;;;;3.80;1.67;;;;;;;;;;5033329;28;20446;-80
2022/09/17 06:12:59;;;;;;;2.78;1.92;;;;;;;;;;5031659;28;20040;-80
2022/09/17 06:15:26;;;;;;;5.78;2.40;;;;;;;;;;5032507;28;20025;-79
2022/09/17 06:17:52;;;;;;;6.63;1.80;;;;;;;;;;5030265;28;20026;-80
2022/09/17 06:20:18;;;;;;;4.45;2.17;;;;;;;;;;5029396;28;20037;-79
2022/09/17 06:22:44;;;;;;;3.95;2.00;;;;;;;;;;5030011;28;20030;-80
2022/09/17 06:25:10;;;;;;;1.92;1.27;;;;;;;;;;5021262;28;20484;-80
2022/09/17 06:27:35;;;;;;;4.20;1.50;;;;;;;;;;5012204;28;20548;-78
2022/09/17 06:30:01;;;;;;;4.10;1.45;;;;;;;;;;5014475;28;20105;-80
2022/09/17 06:32:27;;;;;;;1.98;1.35;;;;;;;;;;5013468;28;20030;-80
2022/09/17 06:34:54;;;;;;;3.22;1.30;;;;;;;;;;5011799;28;20124;-79
2022/09/17 06:37:25;;;;;;;4.07;1.45;;;;;;;;;;5013796;28;20022;-81
2022/09/17 06:39:51;;;;;;;3.50;1.77;;;;;;;;;;5013366;28;20041;-81
2022/09/17 06:42:16;;;;;;;5.97;2.15;;;;;;;;;;5013501;28;20034;-80
2022/09/17 06:44:42;;;;;;;2.20;1.52;;;;;;;;;;5013093;28;20347;-79
2022/09/17 06:47:08;;;;;;;4.20;1.80;;;;;;;;;;5013175;28;20026;-81
2022/09/17 06:49:33;;;;;;;2.92;1.63;;;;;;;;;;5013918;28;20080;-80
2022/09/17 06:51:59;;;;;;;5.18;1.98;;;;;;;;;;5012556;28;20064;-79
2022/09/17 06:54:27;;;;;;;3.75;1.40;;;;;;;;;;4998492;28;20057;-80
2022/09/17 06:56:52;;;;;;;2.42;1.80;;;;;;;;;;5014200;28;20482;-78
2022/09/17 06:59:18;;;;;;;7.95;1.98;;;;;;;;;;4995495;28;20060;-80
2022/09/17 07:01:43;;;;;;;3.55;2.13;;;;;;;;;;5014120;28;20405;-80
2022/09/17 07:04:09;;;;;;;5.28;2.30;;;;;;;;;;5012790;28;20061;-80
2022/09/17 07:06:34;;;;;;;7.45;1.92;;;;;;;;;;5013113;28;20698;-79
2022/09/17 07:09:00;;;;;;;5.63;1.90;;;;;;;;;;5012427;28;20056;-79
2022/09/17 07:11:25;;;;;;;4.32;1.98;;;;;;;;;;5011207;28;20096;-81
2022/09/17 07:13:51;;;;;;;2.75;1.48;;;;;;;;;;4994744;28;20064;-81
2022/09/17 07:16:16;;;;;;;5.53;1.35;;;;;;;;;;4994724;28;20064;-79
2022/09/17 07:18:42;;;;;;;6.75;1.70;;;;;;;;;;5012422;28;20053;-78
2022/09/17 07:21:08;;;;;;;2.47;1.70;;;;;;;;;;5011035;28;20378;-80
2022/09/17 07:23:36;;;;;;;4.68;1.98;;;;;;;;;;4994549;28;20071;-80
2022/09/17 07:26:04;;;;;;;5.30;1.83;;;;;;;;;;5031738;28;20079;-79
2022/09/17 07:28:30;;;;;;;2.50;1.40;;;;;;;;;;5032005;28;20492;-80
2022/09/17 07:30:56;;;;;;;3.80;1.75;;;;;;;;;;5033002;28;20064;-79
2022/09/17 07:33:24;;;;;;;2.90;1.70;;;;;;;;;;5032220;28;20750;-81
2022/09/17 07:35:57;;;;;;;7.18;1.80;;;;;;;;;;5030109;28;20375;-81
2022/09/17 07:38:23;;;;;;;3.70;1.85;;;;;;;;;;5031719;28;20029;-81
2022/09/17 07:41:15;;;;;;;3.42;1.42;;;;;;;;;;5030678;28;20071;-79
2022/09/17 07:43:41;;;;;;;1.60;1.30;;;;;;;;;;5000877;28;20035;-79
2022/09/17 07:46:17;;;;;;;4.53;1.40;;;;;;;;;;5032436;28;20088;-79
2022/09/17 07:48:43;;;;;;;5.47;1.70;;;;;;;;;;5013557;28;20038;-80
2022/09/17 07:51:21;;;;;;;3.58;1.35;;;;;;;;;;5032007;28;20113;-79
2022/09/17 07:53:49;;;;;;;4.53;1.70;;;;;;;;;;5032419;28;20052;-79
2022/09/17 07:56:15;;;;;;;4.15;1.55;;;;;;;;;;5031306;28;20062;-80
2022/09/17 07:58:41;;;;;;;2.97;1.67;;;;;;;;;;5030210;28;20029;-79
2022/09/17 08:01:09;;;;;;;9.88;2.05;;;;;;;;;;5030215;28;20032;-80
2022/09/17 08:03:35;;;;;;;3.53;1.55;;;;;;;;;;5030169;28;20048;-79
2022/09/17 08:06:09;;;;;;;1.35;1.23;;;;;;;;;;5030844;28;20079;-81
2022/09/17 08:08:36;;;;;;;4.43;1.50;;;;;;;;;;5029422;28;20036;-79
2022/09/17 08:11:13;;;;;;;4.57;2.75;;;;;;;;;;5031169;28;20036;-80
2022/09/17 08:13:39;;;;;;;4.85;1.63;;;;;;;;;;5031612;28;20033;-80
2022/09/17 08:16:10;;;;;;;2.20;1.25;;;;;;;;;;5031986;28;20045;-81
2022/09/17 08:18:36;;;;;;;7.60;3.65;;;;;;;;;;5030148;28;20060;-79
2022/09/17 08:21:04;;;;;;;2.25;1.20;;;;;;;;;;5031336;28;20048;-81
2022/09/17 08:23:32;;;;;;;6.95;2.33;;;;;;;;;;5031385;28;20026;-80
2022/09/17 08:25:59;;;;;;;1.65;1.00;;;;;;;;;;5011931;28;20034;-81
2022/09/17 08:28:27;;;;;;;1.83;0.90;;;;;;;;;;5013001;28;20060;-81
2022/09/17 08:30:53;;;;;;;4.32;2.63;;;;;;;;;;5009904;28;20421;-81
2022/09/17 08:33:19;;;;;;;4.13;1.42;;;;;;;;;;5010671;28;20085;-80
2022/09/17 08:35:52;;;;;;;4.25;1.08;;;;;;;;;;5012127;28;20061;-79
2022/09/17 08:38:18;;;;;;;1.63;1.00;;;;;;;;;;5011926;28;20033;-80
2022/09/17 08:41:06;;;;;;;1.05;0.98;;;;;;;;;;5009816;28;20175;-80
2022/09/17 08:43:53;;;;;;;5.50;0.80;;;;;;;;;;5009946;28;20128;-80
2022/09/17 08:46:20;;;;;;;1.98;0.98;;;;;;;;;;5010827;28;20119;-80
2022/09/17 08:49:04;;;;;;;0.75;0.70;;;;;;;;;;5011191;28;20025;-80
2022/09/17 08:51:41;;;;;;;0.93;0.85;;;;;;;;;;5010529;28;20036;-81
2022/09/17 08:54:53;;;;;;;4.07;0.90;;;;;;;;;;5013090;28;20105;-80
2022/09/17 08:57:44;;;;;;;2.03;1.60;;;;;;;;;;4952004;29;20125;-78
2022/09/17 09:00:28;;;;;;;1.25;0.70;;;;;;;;;;5011553;28;20036;-81
2022/09/17 09:03:11;;;;;;;2.45;1.00;;;;;;;;;;4993264;28;20029;-80
2022/09/17 09:05:51;;;;;;;3.05;0.90;;;;;;;;;;4993563;28;20029;-80
2022/09/17 09:08:32;;;;;;;2.05;1.17;;;;;;;;;;4993804;28;20029;-79
2022/09/17 09:11:01;;;;;;;1.42;0.70;;;;;;;;;;5010056;28;20022;-80
2022/09/17 09:13:33;;;;;;;2.67;0.88;;;;;;;;;;5009452;28;20642;-80
2022/09/17 09:16:02;;;;;;;1.00;0.73;;;;;;;;;;5009215;28;20481;-80
2022/09/17 09:18:36;;;;;;;1.02;0.88;;;;;;;;;;5010942;28;20113;-80
2022/09/17 09:21:14;;;;;;;1.05;0.90;;;;;;;;;;5010635;28;20061;-79
2022/09/17 09:23:54;;;;;;;1.67;0.90;;;;;;;;;;5009247;28;20037;-79
2022/09/17 09:26:22;;;;;;;1.55;1.10;;;;;;;;;;5030366;28;20128;-80
2022/09/17 09:29:08;;;;;;;2.38;0.98;;;;;;;;;;5028815;28;20021;-80
2022/09/17 09:31:55;;;;;;;1.88;0.90;;;;;;;;;;5028123;28;20052;-80
2022/09/17 09:34:22;;;;;;;1.90;1.08;;;;;;;;;;5028960;28;20409;-79
2022/09/17 09:36:49;;;;;;;0.80;0.80;;;;;;;;;;5029370;28;20037;-80
2022/09/17 09:39:29;;;;;;;2.83;1.33;;;;;;;;;;5030212;28;20026;-81
2022/09/17 09:42:05;;;;;;;2.47;1.20;;;;;;;;;;5014138;28;20033;-80
2022/09/17 09:44:31;;;;;;;3.90;1.05;;;;;;;;;;5014006;28;20034;-79
2022/09/17 09:46:57;;;;;;;5.35;1.48;;;;;;;;;;5012451;28;20037;-80
2022/09/17 09:49:52;;;;;;;1.95;1.10;;;;;;;;;;5030066;28;20033;-80
2022/09/17 09:52:45;;;;;;;2.03;1.00;;;;;;;;;;5030873;28;20035;-79
2022/09/17 09:55:35;;;;;;;8.30;2.72;;;;;;;;;;5030323;28;20033;-79
2022/09/17 09:58:07;;;;;;;2.38;1.35;;;;;;;;;;5030452;28;20040;-80
2022/09/17 10:00:37;;;;;;;;;;;;;;;;;;5032820;28;20029;-80
2022/09/17 10:03:22;;;;;;;1.08;1.00;;;;;;;;;;5034294;28;19919;-81
2022/09/17 10:06:02;;;;;;;1.70;1.00;;;;;;;;;;5035512;28;20469;-79
2022/09/17 10:08:30;;;;;;;4.18;1.30;;;;;;;;;;5034062;28;20033;-80
2022/09/17 10:11:04;;;;;;;2.17;1.50;;;;;;;;;;5040203;28;20032;-78
2022/09/17 10:13:35;;;;;;;2.35;1.50;;;;;;;;;;5045642;28;20033;-80
2022/09/17 10:16:16;;;;;;;1.23;1.10;;;;;;;;;;5043787;28;20033;-78
2022/09/17 10:18:43;;;;;;;1.52;1.40;;;;;;;;;;5042892;28;20056;-79
2022/09/17 10:21:22;;;;;;;4.30;1.67;;;;;;;;;;5037831;28;20037;-80
2022/09/17 10:23:48;;;;;;;3.60;1.73;;;;;;;;;;5033028;28;20036;-79
2022/09/17 10:26:29;;;;;;;2.13;1.33;;;;;;;;;;5033893;28;20053;-79
2022/09/17 10:28:58;;;;;;;1.95;1.30;;;;;;;;;;5032064;28;20124;-81
2022/09/17 10:31:24;;;;;;;1.98;1.48;;;;;;;;;;5031679;28;20025;-79
2022/09/17 10:33:58;;;;;;;2.58;1.60;;;;;;;;;;5031692;28;20561;-78
2022/09/17 10:36:40;;;;;;;3.63;2.78;;;;;;;;;;5033278;28;20531;-80
2022/09/17 10:39:17;;;;;;;;;;;;;;;;;;5031954;28;20052;-80
2022/09/17 10:42:03;;;;;;;4.80;1.75;;;;;;;;;;5033054;28;19909;-79
2022/09/17 10:44:31;;;;;;;2.88;2.30;;;;;;;;;;5031471;28;20416;-78
2022/09/17 10:47:22;;;;;;;3.65;2.22;;;;;;;;;;5031382;28;20036;-79
2022/09/17 10:50:00;;;;;;;4.40;1.50;;;;;;;;;;5031614;28;20018;-79
2022/09/17 10:52:30;;;;;;;1.85;1.50;;;;;;;;;;5015600;28;20071;-80
2022/09/17 10:55:29;;;;;;;1.85;1.60;;;;;;;;;;5032373;28;20037;-80
2022/09/17 10:58:06;;;;;;;2.25;1.55;;;;;;;;;;5032328;28;20721;-80
2022/09/17 11:00:44;;;;;;;4.05;1.67;;;;;;;;;;5031015;28;20030;-79
2022/09/17 11:03:34;;;;;;;6.30;1.98;;;;;;;;;;5031134;28;20033;-82
2022/09/17 11:06:22;;;;;;;5.65;2.00;;;;;;;;;;5030965;28;20079;-80
2022/09/17 11:08:50;;;;;;;3.22;1.35;;;;;;;;;;5031178;28;20060;-80
2022/09/17 11:11:51;;;;;;;2.30;1.45;;;;;;;;;;5032458;28;20017;-79
2022/09/17 11:14:50;;;;;;;1.52;1.13;;;;;;;;;;5026596;28;20041;-78
2022/09/17 11:17:26;;;;;;;3.42;1.52;;;;;;;;;;5030099;28;20052;-80
2022/09/17 11:20:12;;;;;;;3.50;1.20;;;;;;;;;;5030217;28;20071;-79
2022/09/17 11:22:58;;;;;;;2.00;1.00;;;;;;;;;;5031803;28;20034;-81
2022/09/17 11:25:45;;;;;;;1.45;0.73;;;;;;;;;;5032414;28;20104;-81
2022/09/17 11:28:22;;;;;;;2.20;1.75;;;;;;;;;;5030780;28;20094;-80
2022/09/17 11:31:06;;;;;;;2.35;0.90;;;;;;;;;;5030800;28;20040;-81
2022/09/17 11:33:38;;;;;;;2.42;1.50;;;;;;;;;;5030379;28;20107;-81
2022/09/17 11:36:12;;;;;;;2.00;1.17;;;;;;;;;;5030855;28;20029;-81
2022/09/17 11:38:49;;;;;;;2.03;0.90;;;;;;;;;;5015576;28;20033;-79
2022/09/17 11:41:27;;;;;;;1.10;0.90;;;;;;;;;;5030531;28;20049;-80
2022/09/17 11:43:55;;;;;;;2.55;1.20;;;;;;;;;;5036266;28;20025;-77
2022/09/17 11:46:37;;;;;;;1.92;0.93;;;;;;;;;;5032262;28;20029;-79
2022/09/17 11:49:21;;;;;;;;;;;;;;;;;;5030847;28;20029;-79
2022/09/17 11:51:56;;;;;;;2.38;1.23;;;;;;;;;;5030485;28;19916;-79
2022/09/17 11:54:36;;;;;;;1.73;1.02;;;;;;;;;;5030318;28;20025;-79
2022/09/17 11:57:18;;;;;;;2.47;0.88;;;;;;;;;;5030124;28;20029;-81
2022/09/17 12:00:13;;;;;;;;;;;;;;;;;;5030698;28;20031;-79
2022/09/17 12:02:57;;;;;;;5.63;1.65;;;;;;;;;;5022085;28;19983;-80
2022/09/17 12:05:32;;;;;;;2.83;1.48;;;;;;;;;;5030270;28;20083;-81
2022/09/17 12:08:09;;;;;;;3.92;2.00;;;;;;;;;;5031236;28;20033;-80
2022/09/17 12:10:48;;;;;;;5.78;1.65;;;;;;;;;;5031588;28;20700;-81
2022/09/17 12:13:29;;;;;;;2.97;1.10;;;;;;;;;;5013949;28;20064;-79
2022/09/17 12:16:05;;;;;;;4.43;1.67;;;;;;;;;;5031719;28;20382;-81
2022/09/17 12:18:33;;;;;;;1.92;1.02;;;;;;;;;;5029914;28;20579;-79
2022/09/17 12:21:02;;;;;;;2.88;1.58;;;;;;;;;;5028999;28;20461;-80
2022/09/17 12:23:44;;;;;;;2.72;1.48;;;;;;;;;;5031277;28;20037;-80
2022/09/17 12:26:13;;;;;;;1.80;1.00;;;;;;;;;;5029629;28;20044;-80
2022/09/17 12:29:02;;;;;;;4.18;1.60;;;;;;;;;;5029964;28;20033;-81
2022/09/17 12:31:30;;;;;;;1.63;0.80;;;;;;;;;;5031458;28;20083;-81
2022/09/17 12:34:27;;;;;;;1.85;0.82;;;;;;;;;;5031851;28;20053;-80
2022/09/17 12:37:12;;;;;;;3.58;1.05;;;;;;;;;;5004631;28;20128;-81
2022/09/17 12:39:38;;;;;;;1.92;1.40;;;;;;;;;;5031827;28;20037;-81
2022/09/17 12:42:27;;;;;;;1.05;0.85;;;;;;;;;;5033745;28;20029;-81
2022/09/17 12:45:11;;;;;;;3.55;1.02;;;;;;;;;;5031485;28;20067;-81
2022/09/17 12:47:48;;;;;;;1.58;0.77;;;;;;;;;;5029972;28;20025;-80
2022/09/17 12:50:19;;;;;;;1.08;0.70;;;;;;;;;;5029327;28;20032;-80
2022/09/17 12:53:14;;;;;;;1.40;0.80;;;;;;;;;;5031185;28;20048;-79
2022/09/17 12:56:17;;;;;;;6.30;1.50;;;;;;;;;;5029547;28;20443;-80
2022/09/17 12:58:59;;;;;;;5.25;1.20;;;;;;;;;;5028921;28;20417;-79
2022/09/17 13:01:24;;;;;;;;;;;;;;;;;;5029760;28;20120;-79
2022/09/17 13:03:57;;;;;;;4.93;1.20;;;;;;;;;;5030538;28;20004;-82
2022/09/17 13:06:53;;;;;;;3.25;1.40;;;;;;;;;;5031214;28;20029;-79
2022/09/17 13:09:31;;;;;;;4.78;2.28;;;;;;;;;;5029031;28;20025;-79
2022/09/17 13:12:24;;;;;;;3.45;1.00;;;;;;;;;;5029158;28;20021;-79
2022/09/17 13:15:01;;;;;;;4.25;1.20;;;;;;;;;;5029170;28;20025;-81
2022/09/17 13:17:36;;;;;;;4.25;1.70;;;;;;;;;;5029065;28;20733;-80
2022/09/17 13:20:34;;;;;;;8.00;1.75;;;;;;;;;;5028186;28;20060;-80
2022/09/17 13:23:00;;;;;;;4.03;1.15;;;;;;;;;;5011215;28;20068;-80
2022/09/17 13:25:26;;;;;;;7.30;1.00;;;;;;;;;;5028929;28;20051;-81
2022/09/17 13:28:07;;;;;;;4.93;1.20;;;;;;;;;;5012466;28;20017;-81
2022/09/17 13:30:59;;;;;;;3.30;1.20;;;;;;;;;;5030115;28;20112;-81
2022/09/17 13:33:54;;;;;;;4.93;1.50;;;;;;;;;;5022672;28;20041;-81
2022/09/17 13:36:41;;;;;;;5.15;1.25;;;;;;;;;;5016350;28;20393;-81
2022/09/17 13:39:44;;;;;;;4.28;1.63;;;;;;;;;;5034198;28;20037;-81
2022/09/17 13:42:21;;;;;;;4.55;1.20;;;;;;;;;;5027523;28;20414;-81
2022/09/17 13:45:09;;;;;;;5.40;1.40;;;;;;;;;;5016661;28;20091;-80
2022/09/17 13:47:39;;;;;;;8.15;1.35;;;;;;;;;;5000201;28;20485;-81
2022/09/17 13:50:11;;;;;;;4.03;1.00;;;;;;;;;;5034326;28;20445;-81
2022/09/17 13:52:47;;;;;;;3.55;0.98;;;;;;;;;;5016683;28;20030;-79
2022/09/17 13:55:36;;;;;;;1.83;0.68;;;;;;;;;;5016642;28;20377;-82
2022/09/17 13:58:07;;;;;;;3.63;1.13;;;;;;;;;;5033873;28;20686;-80
2022/09/17 14:01:25;;;;;;;5.07;1.17;;;;;;;;;;5015734;28;20021;-80
2022/09/17 14:03:52;;;;;;;5.68;1.73;;;;;;;;;;4990561;28;20044;-81
2022/09/17 14:06:18;;;;;;;4.22;1.70;;;;;;;;;;5033736;28;20026;-80
2022/09/17 14:08:43;;;;;;;3.55;1.00;;;;;;;;;;5032680;28;20025;-81
2022/09/17 14:11:21;;;;;;;3.50;0.80;;;;;;;;;;5034289;28;20501;-80
2022/09/17 14:13:50;;;;;;;4.85;0.70;;;;;;;;;;5032639;28;20033;-80
2022/09/17 14:16:35;;;;;;;1.38;0.43;;;;;;;;;;5034538;28;20030;-82
2022/09/17 14:19:32;;;;;;;2.03;0.55;;;;;;;;;;5034876;28;20047;-82
2022/09/17 14:22:06;;;;;;;1.65;0.47;;;;;;;;;;5038959;28;20021;-81
2022/09/17 14:24:47;;;;;;;1.02;0.60;;;;;;;;;;5033146;28;20081;-79
2022/09/17 14:27:33;;;;;;;3.97;1.00;;;;;;;;;;5022733;28;20022;-79
2022/09/17 14:30:17;;;;;;;3.15;0.77;;;;;;;;;;5021506;28;20097;-79
2022/09/17 14:32:54;;;;;;;2.72;0.52;;;;;;;;;;5013695;28;20356;-80
2022/09/17 14:35:32;;;;;;;4.20;0.82;;;;;;;;;;5012139;28;20111;-80
2022/09/17 14:38:08;;;;;;;2.88;0.60;;;;;;;;;;5012288;28;20034;-79
2022/09/17 14:40:34;;;;;;;1.77;0.63;;;;;;;;;;5011950;28;20049;-82
2022/09/17 14:43:03;;;;;;;1.27;0.43;;;;;;;;;;5012874;28;20022;-80
2022/09/17 14:45:32;;;;;;;2.30;0.60;;;;;;;;;;4996037;28;20048;-81
2022/09/17 14:48:30;;;;;;;2.67;1.13;;;;;;;;;;5011711;28;20505;-79
2022/09/17 14:51:31;;;;;;;3.00;0.95;;;;;;;;;;5011951;28;20120;-80
2022/09/17 14:54:04;;;;;;;5.57;1.00;;;;;;;;;;4952206;29;20683;-79
2022/09/17 14:56:43;;;;;;;4.28;1.48;;;;;;;;;;5002383;28;20055;-79
2022/09/17 14:59:19;;;;;;;7.65;0.77;;;;;;;;;;4995288;28;20026;-79
2022/09/17 15:01:47;;;;;;;4.93;2.15;;;;;;;;;;5011822;28;20113;-79
2022/09/17 15:04:12;;;;;;;4.40;0.98;;;;;;;;;;5011510;28;20025;-79
2022/09/17 15:06:43;;;;;;;7.20;2.40;;;;;;;;;;5012027;28;20030;-79
2022/09/17 15:09:16;;;;;;;1.27;0.37;;;;;;;;;;5011329;28;20057;-79
2022/09/17 15:11:44;;;;;;;4.43;1.13;;;;;;;;;;5013034;28;20374;-79
2022/09/17 15:14:32;;;;;;;4.25;1.15;;;;;;;;;;5012771;28;20067;-79
2022/09/17 15:17:00;;;;;;;4.93;0.95;;;;;;;;;;5011534;28;20048;-78
2022/09/17 15:19:35;;;;;;;3.45;0.60;;;;;;;;;;5014755;28;20118;-81
2022/09/17 15:22:16;;;;;;;2.20;0.70;;;;;;;;;;4995846;28;20095;-80
2022/09/17 15:24:52;;;;;;;;;;;;;;;;;;4997386;28;20046;-80